createdAt,value
2022-11-10T00:00:30.094Z,42.20
2022-11-10T00:03:23.645Z,38.30
2022-11-10T00:06:17.970Z,40.10
2022-11-10T00:09:12.715Z,41.40
2022-11-10T00:12:10.272Z,42.20
2022-11-10T00:15:20.148Z,40.80
2022-11-10T00:18:17.050Z,41.00
2022-11-10T00:21:14.548Z,39.80
2022-11-10T00:24:08.276Z,37.30
2022-11-10T00:27:02.935Z,34.80
2022-11-10T00:29:56.058Z,36.60
2022-11-10T00:32:52.652Z,25.30
2022-11-10T00:35:49.426Z,38.50
2022-11-10T00:41:34.581Z,36.80
2022-11-10T00:44:32.450Z,36.60
2022-11-10T00:47:26.647Z,36.70
2022-11-10T00:50:21.252Z,36.20
2022-11-10T00:53:15.023Z,36.50
2022-11-10T00:59:01.473Z,34.70
2022-11-10T01:01:58.203Z,35.80
2022-11-10T01:04:51.037Z,35.80
2022-11-10T01:07:45.295Z,34.70
2022-11-10T01:10:40.188Z,33.50
2022-11-10T01:13:35.162Z,32.80
2022-11-10T01:16:29.427Z,33.30
2022-11-10T01:19:30.658Z,33.20
2022-11-10T01:22:27.611Z,33.60
2022-11-10T01:25:21.279Z,31.60
2022-11-10T01:28:29.518Z,33.90
2022-11-10T01:31:29.579Z,34.40
2022-11-10T01:34:22.724Z,33.50
2022-11-10T01:37:16.376Z,35.60
2022-11-10T01:40:14.180Z,35.70
2022-11-10T01:43:15.883Z,32.40
2022-11-10T01:46:11.381Z,28.30
2022-11-10T01:49:06.047Z,35.00
2022-11-10T01:52:06.782Z,35.10
2022-11-10T01:55:01.077Z,33.00
2022-11-10T01:58:10.986Z,35.60
2022-11-10T02:01:06.223Z,32.70
2022-11-10T02:04:02.068Z,32.90
2022-11-10T02:06:57.221Z,33.20
2022-11-10T02:09:50.778Z,35.10
2022-11-10T02:12:43.832Z,36.30
2022-11-10T02:18:28.926Z,32.10
2022-11-10T02:21:23.466Z,35.30
2022-11-10T02:24:17.916Z,37.20
2022-11-10T02:27:14.195Z,36.00
2022-11-10T02:30:10.137Z,35.80
2022-11-10T02:33:04.669Z,35.50
2022-11-10T02:35:58.461Z,35.70
2022-11-10T02:38:51.892Z,34.20
2022-11-10T02:41:44.474Z,32.50
2022-11-10T02:44:38.488Z,32.30
2022-11-10T02:47:34.543Z,33.60
2022-11-10T02:50:28.716Z,36.50
2022-11-10T02:53:22.015Z,32.30
2022-11-10T02:56:17.166Z,36.90
2022-11-10T02:59:10.200Z,33.90
2022-11-10T03:02:03.965Z,33.50
2022-11-10T03:04:57.684Z,32.60
2022-11-10T03:07:57.645Z,31.90
2022-11-10T03:10:50.086Z,32.70
2022-11-10T03:14:00.442Z,31.10
2022-11-10T03:16:54.968Z,32.20
2022-11-10T03:20:01.378Z,25.60
2022-11-10T03:22:56.493Z,32.70
2022-11-10T03:25:50.426Z,31.90
2022-11-10T03:28:56.985Z,31.00
2022-11-10T03:31:51.234Z,31.30
2022-11-10T03:34:47.156Z,32.20
2022-11-10T03:37:43.066Z,11.00
2022-11-10T03:40:50.752Z,30.40
2022-11-10T03:43:50.909Z,27.80
2022-11-10T03:46:51.566Z,31.50
2022-11-10T03:49:44.254Z,27.20
2022-11-10T03:52:37.536Z,27.50
2022-11-10T03:55:31.872Z,25.50
2022-11-10T03:58:26.016Z,30.90
2022-11-10T04:01:18.372Z,29.30
2022-11-10T04:04:32.386Z,28.40
2022-11-10T04:07:42.904Z,28.90
2022-11-10T04:10:39.786Z,20.60
2022-11-10T04:14:01.638Z,30.80
2022-11-10T04:16:57.385Z,33.20
2022-11-10T04:19:50.203Z,30.80
2022-11-10T04:23:01.165Z,32.40
2022-11-10T04:26:08.684Z,31.70
2022-11-10T04:29:04.719Z,31.90
2022-11-10T04:31:58.315Z,33.20
2022-11-10T04:34:51.718Z,35.80
2022-11-10T04:37:46.721Z,33.20
2022-11-10T04:40:40.158Z,36.00
2022-11-10T04:46:55.264Z,36.10
2022-11-10T04:49:49.966Z,30.60
2022-11-10T04:52:44.417Z,34.70
2022-11-10T04:55:41.233Z,34.70
2022-11-10T04:58:36.116Z,35.10
2022-11-10T05:01:34.577Z,31.70
2022-11-10T05:04:28.034Z,33.10
2022-11-10T05:07:20.985Z,33.00
2022-11-10T05:10:14.787Z,34.20
2022-11-10T05:13:09.002Z,38.00
2022-11-10T05:16:07.546Z,34.20
2022-11-10T05:19:01.538Z,36.30
2022-11-10T05:24:51.877Z,33.30
2022-11-10T05:27:44.853Z,38.50
2022-11-10T05:30:39.380Z,38.50
2022-11-10T05:33:32.600Z,35.00
2022-11-10T05:36:28.840Z,34.70
2022-11-10T05:39:21.771Z,35.40
2022-11-10T05:42:15.472Z,33.20
2022-11-10T05:45:12.803Z,29.80
2022-11-10T05:48:07.449Z,38.00
2022-11-10T05:51:01.132Z,37.90
2022-11-10T05:53:53.957Z,35.30
2022-11-10T05:56:49.636Z,36.60
2022-11-10T05:59:42.156Z,36.80
2022-11-10T06:02:36.851Z,35.20
2022-11-10T06:05:31.488Z,32.40
2022-11-10T06:08:24.298Z,37.30
2022-11-10T06:11:21.118Z,39.40
2022-11-10T06:14:14.350Z,37.80
2022-11-10T06:17:08.860Z,38.10
2022-11-10T06:20:02.107Z,36.60
2022-11-10T06:23:07.993Z,19.70
2022-11-10T06:26:03.926Z,36.90
2022-11-10T06:29:10.648Z,35.40
2022-11-10T06:32:04.083Z,37.00
2022-11-10T06:35:02.949Z,38.40
2022-11-10T06:38:07.833Z,34.30
2022-11-10T06:41:10.907Z,37.40
2022-11-10T06:44:17.487Z,34.80
2022-11-10T06:47:12.927Z,36.30
2022-11-10T06:50:16.427Z,36.30
2022-11-10T06:53:10.757Z,36.80
2022-11-10T06:56:03.950Z,38.50
2022-11-10T06:58:59.666Z,37.80
2022-11-10T07:02:21.375Z,34.50
2022-11-10T07:05:42.283Z,38.30
2022-11-10T07:08:55.978Z,38.60
2022-11-10T07:12:15.529Z,25.30
2022-11-10T07:15:10.856Z,39.40
2022-11-10T07:18:06.756Z,37.40
2022-11-10T07:21:01.512Z,38.70
2022-11-10T07:23:59.411Z,36.90
2022-11-10T07:26:54.510Z,29.50
2022-11-10T07:29:47.975Z,37.90
2022-11-10T07:32:43.712Z,39.70
2022-11-10T07:35:46.757Z,39.00
2022-11-10T07:38:39.677Z,40.60
2022-11-10T07:41:36.146Z,38.60
2022-11-10T07:44:32.076Z,39.30
2022-11-10T07:47:29.248Z,39.70
2022-11-10T07:50:26.179Z,40.00
2022-11-10T07:53:22.423Z,36.70
2022-11-10T07:56:20.622Z,37.90
2022-11-10T07:59:22.924Z,38.50
2022-11-10T08:02:17.999Z,39.90
2022-11-10T08:05:12.172Z,39.40
2022-11-10T08:08:06.851Z,38.90
2022-11-10T08:11:01.973Z,40.60
2022-11-10T08:14:04.922Z,40.30
2022-11-10T08:16:58.221Z,40.30
2022-11-10T08:19:51.471Z,36.80
2022-11-10T08:22:45.119Z,40.10
2022-11-10T08:25:41.768Z,38.20
2022-11-10T08:28:43.046Z,39.80
2022-11-10T08:31:55.595Z,41.30
2022-11-10T08:34:51.277Z,41.70
2022-11-10T08:37:46.143Z,37.50
2022-11-10T08:40:41.170Z,37.20
2022-11-10T08:43:39.816Z,39.10
2022-11-10T08:46:33.108Z,38.10
2022-11-10T08:49:27.519Z,37.70
2022-11-10T08:52:22.190Z,42.10
2022-11-10T08:55:21.850Z,40.20
2022-11-10T08:58:16.954Z,41.50
2022-11-10T09:01:14.406Z,41.80
2022-11-10T09:04:08.498Z,42.00
2022-11-10T09:10:06.592Z,38.60
2022-11-10T09:13:03.576Z,37.20
2022-11-10T09:15:59.061Z,40.40
2022-11-10T09:18:52.380Z,37.20
2022-11-10T09:21:46.130Z,37.30
2022-11-10T09:24:41.308Z,32.30
2022-11-10T09:27:39.541Z,35.60
2022-11-10T09:30:35.172Z,19.90
2022-11-10T09:33:29.952Z,38.30
2022-11-10T09:36:25.606Z,37.60
2022-11-10T09:39:21.471Z,32.00
2022-11-10T09:42:30.628Z,36.10
2022-11-10T09:45:29.180Z,35.70
2022-11-10T09:48:27.191Z,31.60
2022-11-10T09:51:26.622Z,36.50
2022-11-10T09:54:33.623Z,33.00
2022-11-10T09:57:32.075Z,33.40
2022-11-10T10:00:26.909Z,35.30
2022-11-10T10:03:26.794Z,33.10
2022-11-10T10:06:23.091Z,30.70
2022-11-10T10:09:31.518Z,34.20
2022-11-10T10:12:38.372Z,31.20
2022-11-10T10:15:39.903Z,32.70
2022-11-10T10:18:42.182Z,32.80
2022-11-10T10:21:53.048Z,34.10
2022-11-10T10:24:46.871Z,31.70
2022-11-10T10:27:44.651Z,32.70
2022-11-10T10:30:37.909Z,28.90
2022-11-10T10:33:32.485Z,32.20
2022-11-10T10:36:30.185Z,32.20
2022-11-10T10:39:30.857Z,31.10
2022-11-10T10:42:33.864Z,34.10
2022-11-10T10:45:31.870Z,32.90
2022-11-10T10:48:32.146Z,32.50
2022-11-10T10:51:35.303Z,33.60
2022-11-10T10:54:32.288Z,29.60
2022-11-10T10:57:30.301Z,30.40
2022-11-10T11:00:26.904Z,31.10
2022-11-10T11:03:42.680Z,29.10
2022-11-10T11:06:38.254Z,31.60
2022-11-10T11:09:43.577Z,32.50
2022-11-10T11:12:38.077Z,31.00
2022-11-10T11:15:34.471Z,26.90
2022-11-10T11:18:30.092Z,27.70
2022-11-10T11:21:35.788Z,24.30
2022-11-10T11:24:36.807Z,23.60
2022-11-10T11:27:39.314Z,23.90
2022-11-10T11:30:41.432Z,24.30
2022-11-10T11:33:40.497Z,20.50
2022-11-10T11:36:46.217Z,23.00
2022-11-10T11:39:51.179Z,23.90
2022-11-10T11:45:56.315Z,23.40
2022-11-10T11:49:07.036Z,23.20
2022-11-10T11:52:11.329Z,23.60
2022-11-10T11:55:18.556Z,23.30
2022-11-10T11:58:27.299Z,25.30
2022-11-10T12:01:38.044Z,25.80
2022-11-10T12:05:01.650Z,24.90
2022-11-10T12:08:04.559Z,25.50
2022-11-10T12:11:06.159Z,25.10
2022-11-10T12:14:07.476Z,23.70
2022-11-10T12:17:13.601Z,22.20
2022-11-10T12:20:28.891Z,23.80
2022-11-10T12:23:35.562Z,24.20
2022-11-10T12:26:41.176Z,22.90
2022-11-10T12:30:04.349Z,24.10
2022-11-10T12:33:04.255Z,21.40
2022-11-10T12:36:00.475Z,21.90
2022-11-10T12:39:03.617Z,23.10
2022-11-10T12:42:07.107Z,22.70
2022-11-10T12:45:23.572Z,23.30
2022-11-10T12:48:21.666Z,25.20
2022-11-10T12:51:23.119Z,17.30
2022-11-10T12:54:20.885Z,22.90
2022-11-10T12:57:19.400Z,21.10
2022-11-10T13:00:30.860Z,22.80
2022-11-10T13:03:37.531Z,21.60
2022-11-10T13:06:33.534Z,21.10
2022-11-10T13:09:33.167Z,21.10
2022-11-10T13:12:28.562Z,21.80
2022-11-10T13:15:55.162Z,21.70
2022-11-10T13:19:07.733Z,19.40
2022-11-10T13:22:14.575Z,21.30
2022-11-10T13:25:41.537Z,17.20
2022-11-10T13:29:22.025Z,19.70
2022-11-10T13:32:31.288Z,20.90
2022-11-10T13:35:55.426Z,19.10
2022-11-10T13:38:49.593Z,18.90
2022-11-10T13:41:51.435Z,20.40
2022-11-10T13:44:58.962Z,17.80
2022-11-10T13:48:00.437Z,19.80
2022-11-10T13:51:12.848Z,17.30
2022-11-10T13:54:29.732Z,19.40
2022-11-10T13:57:38.143Z,18.50
2022-11-10T14:00:35.821Z,18.40
2022-11-10T14:04:01.281Z,16.90
2022-11-10T14:07:01.997Z,15.80
2022-11-10T14:09:58.759Z,15.50
2022-11-10T14:12:55.424Z,15.20
2022-11-10T14:15:49.736Z,15.60
2022-11-10T14:18:51.565Z,14.80
2022-11-10T14:21:56.895Z,14.10
2022-11-10T14:25:01.971Z,13.20
2022-11-10T14:27:58.214Z,14.50
2022-11-10T14:30:59.018Z,15.30
2022-11-10T14:34:01.162Z,13.20
2022-11-10T14:37:01.051Z,13.90
2022-11-10T14:39:57.540Z,14.60
2022-11-10T14:42:52.489Z,13.90
2022-11-10T14:45:55.546Z,14.50
2022-11-10T14:48:57.993Z,12.50
2022-11-10T14:51:52.479Z,14.30
2022-11-10T14:54:51.561Z,16.10
2022-11-10T14:57:49.051Z,17.00
2022-11-10T15:00:47.095Z,15.90
2022-11-10T15:03:42.785Z,15.90
2022-11-10T15:06:44.468Z,17.20
2022-11-10T15:12:32.364Z,16.30
2022-11-10T15:15:42.022Z,14.00
2022-11-10T15:18:40.899Z,19.00
2022-11-10T15:21:37.063Z,17.90
2022-11-10T15:24:31.071Z,17.30
2022-11-10T15:27:31.270Z,17.90
2022-11-10T15:30:38.606Z,20.90
2022-11-10T15:33:34.329Z,20.10
2022-11-10T15:36:37.354Z,6.10
2022-11-10T15:39:38.747Z,22.20
2022-11-10T15:42:37.026Z,22.70
2022-11-10T15:45:41.214Z,22.10
2022-11-10T15:48:42.557Z,23.50
2022-11-10T15:51:37.325Z,25.40
2022-11-10T15:57:25.263Z,25.30
2022-11-10T16:00:23.343Z,26.50
2022-11-10T16:03:18.915Z,26.20
2022-11-10T16:06:16.981Z,25.70
2022-11-10T16:09:14.703Z,6.10
2022-11-10T16:12:09.002Z,25.60
2022-11-10T16:15:03.426Z,25.90
2022-11-10T16:17:59.545Z,27.90
2022-11-10T16:20:53.037Z,27.80
2022-11-10T16:23:56.684Z,29.90
2022-11-10T16:27:01.042Z,31.00
2022-11-10T16:36:29.602Z,34.10
2022-11-10T16:39:26.099Z,41.50
2022-11-10T16:42:19.220Z,42.60
2022-11-10T16:45:37.845Z,37.70
2022-11-10T16:48:35.885Z,36.40
2022-11-10T16:51:35.879Z,34.60
2022-11-10T16:54:30.029Z,35.70
2022-11-10T16:57:28.234Z,33.50
2022-11-10T17:00:23.535Z,12.30
2022-11-10T17:03:15.912Z,37.60
2022-11-10T17:06:15.634Z,34.90
2022-11-10T17:09:15.942Z,32.70
2022-11-10T17:12:18.786Z,35.30
2022-11-10T17:15:15.904Z,34.30
2022-11-10T17:18:13.830Z,31.50
2022-11-10T17:21:21.096Z,33.60
2022-11-10T17:24:24.560Z,31.30
2022-11-10T17:27:22.686Z,34.40
2022-11-10T17:30:26.665Z,32.60
2022-11-10T17:33:35.329Z,37.90
2022-11-10T17:36:46.269Z,53.20
2022-11-10T17:39:43.804Z,49.30
2022-11-10T17:42:40.026Z,40.30
2022-11-10T17:49:29.282Z,42.40
2022-11-10T17:52:23.621Z,39.10
2022-11-10T17:55:28.495Z,36.20
2022-11-10T17:58:25.938Z,33.60
2022-11-10T18:01:23.613Z,33.50
2022-11-10T18:04:17.887Z,34.70
2022-11-10T18:07:12.969Z,34.50
2022-11-10T18:10:12.952Z,32.80
2022-11-10T18:13:07.568Z,33.70
2022-11-10T18:16:06.212Z,34.00
2022-11-10T18:19:01.827Z,31.80
2022-11-10T18:21:58.523Z,32.60
2022-11-10T18:24:54.853Z,35.00
2022-11-10T18:27:49.773Z,33.60
2022-11-10T18:30:52.572Z,33.10
2022-11-10T18:33:47.254Z,30.90
2022-11-10T18:36:42.759Z,33.80
2022-11-10T18:39:45.948Z,35.10
2022-11-10T18:42:41.038Z,32.90
2022-11-10T18:45:51.879Z,33.40
2022-11-10T18:48:46.996Z,32.20
2022-11-10T18:51:41.492Z,33.50
2022-11-10T18:54:35.203Z,33.40
2022-11-10T18:57:30.222Z,32.80
2022-11-10T19:00:24.257Z,33.20
2022-11-10T19:03:24.848Z,31.50
2022-11-10T19:06:20.100Z,31.40
2022-11-10T19:09:16.238Z,30.80
2022-11-10T19:12:36.555Z,31.40
2022-11-10T19:15:59.925Z,30.10
2022-11-10T19:19:04.123Z,31.30
2022-11-10T19:22:25.514Z,29.60
2022-11-10T19:25:38.751Z,29.10
2022-11-10T19:28:37.661Z,27.80
2022-11-10T19:31:37.614Z,27.40
2022-11-10T19:34:38.077Z,27.90
2022-11-10T19:37:42.297Z,27.10
2022-11-10T19:40:40.195Z,25.60
2022-11-10T19:43:37.286Z,26.70
2022-11-10T19:46:37.404Z,27.00
2022-11-10T19:52:38.549Z,25.00
2022-11-10T19:55:37.648Z,26.40
2022-11-10T19:58:36.555Z,27.00
2022-11-10T20:01:32.873Z,27.80
2022-11-10T20:04:26.490Z,28.90
2022-11-10T20:07:45.396Z,28.90
2022-11-10T20:10:39.153Z,29.00
2022-11-10T20:13:33.516Z,28.70
2022-11-10T20:16:27.888Z,30.70
2022-11-10T20:19:21.412Z,30.60
2022-11-10T20:22:25.447Z,29.70
2022-11-10T20:25:19.798Z,31.00
2022-11-10T20:28:15.911Z,30.00
2022-11-10T20:31:21.013Z,28.40
2022-11-10T20:34:13.972Z,29.90
2022-11-10T20:37:11.784Z,31.70
2022-11-10T20:40:30.341Z,32.10
2022-11-10T20:43:37.433Z,33.50
2022-11-10T20:46:53.400Z,34.80
2022-11-10T20:49:48.069Z,37.70
2022-11-10T20:52:41.668Z,37.20
2022-11-10T20:55:52.655Z,37.40
2022-11-10T20:58:48.524Z,38.20
2022-11-10T21:01:40.849Z,35.60
2022-11-10T21:07:26.177Z,35.70
2022-11-10T21:10:20.259Z,34.60
2022-11-10T21:13:14.702Z,32.00
2022-11-10T21:16:33.397Z,32.30
2022-11-10T21:19:26.836Z,30.30
2022-11-10T21:22:19.722Z,29.20
2022-11-10T21:25:17.124Z,29.00
2022-11-10T21:28:15.190Z,30.60
2022-11-10T21:34:22.050Z,29.10
2022-11-10T21:37:17.961Z,28.90
2022-11-10T21:40:17.864Z,29.90
2022-11-10T21:43:21.730Z,29.70
2022-11-10T21:46:31.191Z,29.50
2022-11-10T21:49:24.734Z,26.10
2022-11-10T21:52:18.442Z,27.40
2022-11-10T21:55:13.858Z,29.60
2022-11-10T21:58:07.460Z,30.60
2022-11-10T22:01:08.289Z,32.40
2022-11-10T22:04:07.317Z,32.20
2022-11-10T22:07:18.860Z,33.30
2022-11-10T22:13:40.833Z,28.00
2022-11-10T22:17:03.790Z,30.90
2022-11-10T22:19:57.529Z,31.70
2022-11-10T22:22:51.074Z,30.70
2022-11-10T22:25:43.723Z,32.00
2022-11-10T22:28:38.946Z,31.80
2022-11-10T22:31:43.726Z,31.10
2022-11-10T22:34:37.128Z,30.20
2022-11-10T22:37:33.553Z,31.80
2022-11-10T22:40:44.068Z,32.10
2022-11-10T22:44:03.137Z,30.70
2022-11-10T22:47:00.777Z,32.00
2022-11-10T22:49:54.204Z,32.00
2022-11-10T22:52:52.713Z,32.40
2022-11-10T22:55:46.560Z,32.80
2022-11-10T23:01:34.089Z,29.30
2022-11-10T23:04:28.363Z,31.60
2022-11-10T23:07:21.395Z,31.10
2022-11-10T23:10:15.974Z,30.90
2022-11-10T23:13:10.686Z,29.90
2022-11-10T23:16:07.952Z,29.90
2022-11-10T23:19:03.065Z,29.10
2022-11-10T23:21:56.314Z,29.00
2022-11-10T23:24:52.902Z,26.60
2022-11-10T23:27:48.625Z,27.20
2022-11-10T23:30:43.114Z,30.10
2022-11-10T23:33:36.186Z,30.80
2022-11-10T23:36:30.589Z,31.10
2022-11-10T23:39:23.729Z,31.20
